Nearby METAR Reports

 

KKLS - Kelso Longveiw, Washington, USA
Distance from station: ESE 7mi, 11km
Updated: 2021-03-08 08:56
Clear
Clear
 Wind from calm
Wind: Calm
Temperature: 36°F , 2°C
Dew Point: 36°F , 2°C
Humidity: 100%
Barometer: 29.98 inHg , 1015.2 hPa
Clouds: Clear
Visibility: 10 miles , 16 km
2021/03/08 16:56 KKLS 081656Z AUTO 00000KT 10SM CLR 02/02 A2998 RMK AO2 SLP157 T00170017 FZRANO
KSPB - Scappoose, Oregon, USA
Distance from station: SSE 29mi, 46km
Updated: 2021-03-08 09:53
Mostly cloudy
Mostly cloudy
 Wind from calm
Wind: Calm
Temperature: 41°F , 5°C
Dew Point: 37°F , 3°C
Humidity: 87%
Barometer: 29.95 inHg , 1014.2 hPa
Clouds: Mostly cloudy
Visibility: 10 miles , 16 km
Cloud details: Mostly cloudy 11000 ft
2021/03/08 17:53 KSPB 081753Z AUTO 00000KT 10SM BKN110 05/03 A2995 RMK AO2 SLP141 I6000 T
 
KCLS - Chehalis Central, Washington, USA
Distance from station: N 36mi, 58km
Updated: 2021-03-08 09:35
Overcast
Overcast
 Wind from NE
Wind: NE 5 mph , 7 km/h
Temperature: 32°F , 0°C
Wind Chill: 27°F , -3°C
Dew Point: 32°F , 0°C
Humidity: 100%
Barometer: 29.99 inHg , 1015.6 hPa
Clouds: Overcast
Visibility: 10 miles , 16 km
Cloud details: Overcast 600 ft
2021/03/08 17:35 KCLS 081735Z AUTO 04004KT 10SM OVC006 00/00 A2999 RMK AO2
KAST - Astoria, Oregon, USA
Distance from station: W 41mi, 66km
Updated: 2021-03-08 08:55
Clear
Clear
 Wind from ENE
Wind: ENE 7 mph , 11 km/h
Temperature: 39°F , 4°C
Wind Chill: 34°F , 1°C
Dew Point: 36°F , 2°C
Humidity: 87%
Barometer: 29.92 inHg , 1013.2 hPa
Clouds: Clear
Visibility: 10 miles , 16 km
2021/03/08 16:55 KAST 081655Z AUTO 07006KT 10SM CLR 04/02 A2992 RMK AO2 SLP133 T00390017
 
KVUO - Vancouver, Washington, USA
Distance from station: SSE 42mi, 68km
Updated: 2021-03-08 09:53
Overcast
Overcast
 Wind from WSW
Wind: WSW 5 mph , 7 km/h
Temperature: 41°F , 5°C
Wind Chill: 38°F , 3°C
Dew Point: 34°F , 1°C
Humidity: 76%
Barometer: 29.96 inHg , 1014.6 hPa
Clouds: Overcast
Visibility: 10 miles , 16 km
Cloud details: Overcast 10000 ft
2021/03/08 17:53 KVUO 081753Z AUTO 25004KT 10SM OVC100 05/01 A2996 RMK AO2 SLP145 T00500006 10050 21006 55007
KHIO - Hillsboro/Portld, Oregon, USA
Distance from station: S 43mi, 69km
Updated: 2021-03-08 09:53
Mostly cloudy
Mostly cloudy
 Wind from W
Wind: W 8 mph , 13 km/h
Temperature: 41°F , 5°C
Wind Chill: 36°F , 2°C
Dew Point: 36°F , 2°C
Humidity: 81%
Barometer: 29.94 inHg , 1013.9 hPa
Clouds: Mostly cloudy
Visibility: 10 miles , 16 km
Cloud details: Few Clouds 7500 ft
Partly cloudy 10000 ft
Mostly cloudy 12000 ft
2021/03/08 17:53 KHIO 081753Z 27007KT 10SM FEW075 SCT100 BKN120 05/02 A2994 RMK AO2 SLP142 I6000 T00500022 10050 21011 55008
 
KPDX - Portland, Oregon, USA
Distance from station: SSE 44mi, 70km
Updated: 2021-03-08 09:53
Overcast
Overcast
 Wind from WNW
Wind: WNW 109 mph , 176 km/h
Temperature: 39°F , 4°C
Wind Chill: 20°F , -7°C
Dew Point: 36°F , 2°C
Humidity: 87%
Barometer: 29.96 inHg , 1014.6 hPa
Clouds: Overcast
Visibility: 10 miles , 16 km
Cloud details: Few Clouds 200 ft
Few Clouds 7500 ft
Overcast 10000 ft
2021/03/08 17:53 KPDX 081753Z 29095KT 10SM FEW002 FEW075 OVC100 04/02 A2996 RMK SLPNO T00390017 RVRNO